Time;durP1;ratioP1;P1;durP2;ratioP2;P2;SDS_P1;SDS_P2;PMS_P1;PMS_P2;Temp;Humidity;BMP_temperature;BMP_pressure;BME280_temperature;BME280_humidity;BME280_pressure;Samples;Min_cycle;Max_cycle;Signal;HPM_P1;HPM_P2
2022/01/11 00:03:44;;;;;;;28.23;11.97;;;-1.50;99.90;;;;;;10449442;28;20107;-89
2022/01/11 00:08:45;;;;;;;27.40;12.00;;;-1.50;99.90;;;;;;10445785;28;20031;-90
2022/01/11 00:13:46;;;;;;;31.20;13.90;;;-1.50;99.90;;;;;;10461994;28;20028;-89
2022/01/11 00:18:47;;;;;;;25.67;11.57;;;-1.50;99.90;;;;;;10461874;28;20017;-89
2022/01/11 00:29:07;;;;;;;28.17;12.77;;;-1.50;99.90;;;;;;10463964;28;20044;-89
2022/01/11 00:34:08;;;;;;;28.60;12.40;;;-1.50;99.90;;;;;;10518330;28;20028;-89
2022/01/11 00:39:10;;;;;;;28.80;12.27;;;-1.50;99.90;;;;;;10490036;28;20518;-90
2022/01/11 00:44:11;;;;;;;24.90;11.83;;;-1.60;99.90;;;;;;10461313;28;20036;-88
2022/01/11 00:49:11;;;;;;;27.00;12.90;;;-1.50;99.90;;;;;;10444400;28;20028;-89
2022/01/11 00:54:12;;;;;;;26.33;12.80;;;-1.50;99.90;;;;;;10467353;28;20447;-91
2022/01/11 00:59:13;;;;;;;25.83;12.37;;;-1.50;99.90;;;;;;10508234;28;20076;-88
2022/01/11 01:04:14;;;;;;;30.77;13.70;;;-1.50;99.90;;;;;;10433971;28;20115;-89
2022/01/11 01:09:14;;;;;;;32.90;13.37;;;-1.60;99.90;;;;;;10448731;28;20025;-89
2022/01/11 01:14:16;;;;;;;27.63;13.43;;;-1.50;99.90;;;;;;10466398;28;20041;-91
2022/01/11 01:19:19;;;;;;;31.83;14.00;;;-1.50;99.90;;;;;;10457007;28;20037;-90
2022/01/11 01:24:19;;;;;;;31.60;13.20;;;-1.50;99.90;;;;;;10433104;28;20393;-89
2022/01/11 01:29:20;;;;;;;30.67;14.07;;;-1.60;99.90;;;;;;10486716;28;20039;-91
2022/01/11 01:34:23;;;;;;;25.90;12.90;;;-1.70;99.90;;;;;;10489979;28;20047;-90
2022/01/11 01:39:25;;;;;;;32.27;13.83;;;-1.70;99.90;;;;;;10434563;28;20037;-92
2022/01/11 01:44:26;;;;;;;30.20;12.30;;;-1.60;99.90;;;;;;10451218;28;20028;-89
2022/01/11 01:49:28;;;;;;;31.13;13.07;;;-1.70;99.90;;;;;;10460132;28;20440;-90
2022/01/11 01:54:29;;;;;;;27.07;13.63;;;-1.80;99.90;;;;;;10480948;28;20035;-89
2022/01/11 01:59:30;;;;;;;26.13;12.33;;;-1.70;99.90;;;;;;10474595;28;20045;-90
2022/01/11 02:04:32;;;;;;;32.97;14.70;;;-1.80;99.90;;;;;;10426853;28;20496;-90
2022/01/11 02:09:33;;;;;;;28.70;12.80;;;-1.90;99.90;;;;;;10435170;28;20025;-89
2022/01/11 02:14:33;;;;;;;29.60;12.77;;;-1.90;99.90;;;;;;10413642;28;20025;-89
2022/01/11 02:19:34;;;;;;;29.10;13.17;;;-1.80;99.90;;;;;;10432297;28;20041;-89
2022/01/11 02:24:35;;;;;;;30.60;12.27;;;-1.80;99.90;;;;;;10391252;28;20032;-90
2022/01/11 02:29:37;;;;;;;27.37;11.90;;;-1.80;99.90;;;;;;10403833;28;20033;-90
2022/01/11 02:34:37;;;;;;;28.83;13.37;;;-1.80;99.90;;;;;;10405725;28;20394;-90
2022/01/11 02:39:38;;;;;;;26.10;11.60;;;-1.90;99.90;;;;;;10410647;28;20044;-89
2022/01/11 02:44:39;;;;;;;28.27;12.77;;;-1.90;99.90;;;;;;10421317;28;20388;-90
2022/01/11 02:49:40;;;;;;;28.97;11.43;;;-2.00;99.90;;;;;;10428163;28;20030;-89
2022/01/11 02:54:40;;;;;;;29.00;11.57;;;-2.00;99.90;;;;;;10395872;28;20119;-90
2022/01/11 02:59:41;;;;;;;29.47;12.00;;;-2.10;99.90;;;;;;10432661;28;20057;-90
2022/01/11 03:04:44;;;;;;;33.40;13.33;;;-2.10;99.90;;;;;;10436971;28;20041;-89
2022/01/11 03:10:28;;;;;;;32.20;12.87;;;-2.10;99.90;;;;;;10453141;28;20025;-89
2022/01/11 03:15:12;;;;;;;24.27;11.93;;;-2.10;99.90;;;;;;10456031;28;20451;-91
2022/01/11 03:20:13;;;;;;;24.33;12.23;;;-2.10;99.90;;;;;;10440934;28;20059;-90
2022/01/11 03:25:16;;;;;;;25.90;12.47;;;-2.20;99.90;;;;;;10438412;28;20036;-91
2022/01/11 03:30:17;;;;;;;28.43;13.33;;;-2.20;99.90;;;;;;10457680;28;20482;-90
2022/01/11 03:35:18;;;;;;;27.50;12.77;;;-2.20;99.90;;;;;;10472514;28;20028;-89
2022/01/11 03:40:22;;;;;;;27.93;12.93;;;-2.20;99.90;;;;;;10466185;28;20058;-90
2022/01/11 03:45:25;;;;;;;27.43;13.00;;;-2.20;99.90;;;;;;10470917;28;20028;-90
2022/01/11 03:50:26;;;;;;;31.27;14.33;;;-2.20;99.90;;;;;;10459800;28;20028;-89
2022/01/11 04:00:47;;;;;;;45.53;18.87;;;-2.30;99.90;;;;;;10481467;28;20057;-88
2022/01/11 04:05:47;;;;;;;84.57;25.97;;;-2.30;99.90;;;;;;10452001;28;20033;-85
2022/01/11 04:10:49;;;;;;;39.50;14.93;;;-2.30;99.90;;;;;;10463273;28;20024;-88
2022/01/11 04:15:49;;;;;;;32.60;13.87;;;-2.20;99.90;;;;;;10483403;28;20036;-89
2022/01/11 04:20:50;;;;;;;30.03;13.20;;;-2.10;99.90;;;;;;10457730;28;20033;-90
2022/01/11 04:25:51;;;;;;;35.77;13.93;;;-2.20;99.90;;;;;;10454089;28;20097;-90
2022/01/11 04:30:57;;;;;;;34.33;15.33;;;-2.20;99.90;;;;;;10465965;28;20051;-89
2022/01/11 04:36:00;;;;;;;42.00;17.27;;;-2.20;99.90;;;;;;10473268;28;20464;-89
2022/01/11 04:41:01;;;;;;;39.47;17.90;;;-2.30;99.90;;;;;;10462872;28;20045;-87
2022/01/11 04:46:01;;;;;;;38.67;17.50;;;-2.30;99.90;;;;;;10478290;28;20033;-89
2022/01/11 04:51:04;;;;;;;47.17;20.33;;;-2.40;99.90;;;;;;10470359;28;20036;-89
2022/01/11 04:56:08;;;;;;;46.43;21.07;;;-2.40;99.90;;;;;;10450098;28;20028;-91
2022/01/11 05:01:09;;;;;;;48.97;21.50;;;-2.40;99.90;;;;;;10463244;28;20056;-88
2022/01/11 05:06:10;;;;;;;55.33;23.03;;;-2.50;99.90;;;;;;10475450;28;20024;-89
2022/01/11 05:11:10;;;;;;;56.33;24.17;;;-2.50;99.90;;;;;;10478387;28;20075;-85
2022/01/11 05:16:11;;;;;;;56.40;24.47;;;-2.60;99.90;;;;;;10472263;28;20484;-87
2022/01/11 05:21:12;;;;;;;68.30;25.13;;;-2.60;99.90;;;;;;10474836;28;20447;-87
2022/01/11 05:26:13;;;;;;;63.27;25.40;;;-2.70;99.90;;;;;;10456868;28;20040;-86
2022/01/11 05:31:13;;;;;;;60.23;24.83;;;-2.80;99.90;;;;;;10468613;28;20774;-88
2022/01/11 05:36:14;;;;;;;65.43;26.70;;;-2.90;99.90;;;;;;10457553;28;20435;-87
2022/01/11 05:41:15;;;;;;;67.50;27.90;;;-2.90;99.90;;;;;;10462996;28;20476;-89
2022/01/11 05:46:15;;;;;;;68.77;27.70;;;-3.10;99.90;;;;;;10469513;28;20032;-88
2022/01/11 05:51:27;;;;;;;65.90;27.30;;;-3.20;99.90;;;;;;10488382;28;20028;-88
2022/01/11 05:56:28;;;;;;;71.70;30.03;;;-3.50;99.90;;;;;;10471716;28;20024;-88
2022/01/11 06:01:28;;;;;;;74.70;30.10;;;-3.60;99.90;;;;;;10472278;28;20060;-90
2022/01/11 06:06:29;;;;;;;73.47;30.00;;;-3.70;99.90;;;;;;10461369;28;20036;-90
2022/01/11 06:11:31;;;;;;;66.57;28.73;;;-3.90;99.90;;;;;;10432724;28;20149;-88
2022/01/11 06:16:31;;;;;;;84.40;33.03;;;-4.00;99.90;;;;;;10432168;28;20048;-88
2022/01/11 06:21:32;;;;;;;83.87;33.50;;;-4.10;99.90;;;;;;10449091;28;20119;-89
2022/01/11 06:26:33;;;;;;;80.97;35.00;;;-4.20;99.90;;;;;;10473801;28;20040;-88
2022/01/11 06:31:35;;;;;;;86.83;34.73;;;-4.40;99.90;;;;;;10474037;28;20749;-89
2022/01/11 06:36:36;;;;;;;87.80;35.67;;;-4.50;99.90;;;;;;10475021;28;20028;-91
2022/01/11 06:41:36;;;;;;;87.57;35.83;;;-4.60;99.90;;;;;;10480750;28;20033;-91
2022/01/11 06:46:38;;;;;;;82.50;34.77;;;-4.80;99.90;;;;;;10479777;28;20182;-89
2022/01/11 06:51:39;;;;;;;96.60;35.33;;;-5.00;99.90;;;;;;10457370;28;20074;-89
2022/01/11 06:56:40;;;;;;;102.27;39.33;;;-5.10;99.90;;;;;;10439380;28;20473;-89
2022/01/11 07:01:40;;;;;;;95.73;39.20;;;-5.10;99.90;;;;;;10439266;28;20045;-88
2022/01/11 07:06:41;;;;;;;103.37;39.23;;;-5.10;99.90;;;;;;10456809;28;20115;-90
2022/01/11 07:11:42;;;;;;;93.47;36.53;;;-5.20;99.90;;;;;;10457024;28;20747;-88
2022/01/11 07:16:48;;;;;;;95.73;39.27;;;-5.20;99.90;;;;;;10457049;28;20037;-89
2022/01/11 07:21:48;;;;;;;;;;;-5.20;99.90;;;;;;10440621;28;20037;-89
2022/01/11 07:26:49;;;;;;;106.93;42.93;;;-5.10;99.90;;;;;;10438126;28;19911;-89
2022/01/11 07:31:50;;;;;;;99.27;41.43;;;-5.20;99.90;;;;;;10437834;28;20480;-89
2022/01/11 07:36:51;;;;;;;99.77;41.27;;;-5.20;99.90;;;;;;10438397;28;20021;-89
2022/01/11 07:41:52;;;;;;;105.37;41.23;;;-5.10;99.90;;;;;;10455274;28;20163;-88
2022/01/11 07:46:53;;;;;;;101.83;40.00;;;-5.00;99.90;;;;;;10438987;28;20039;-90
2022/01/11 07:51:54;;;;;;;114.50;44.50;;;-4.90;99.90;;;;;;10455040;28;20120;-88
2022/01/11 07:56:54;;;;;;;93.87;37.23;;;-4.80;99.90;;;;;;10437539;28;20025;-91
2022/01/11 08:01:55;;;;;;;94.27;36.60;;;-4.70;99.90;;;;;;10441123;28;20063;-92
2022/01/11 08:06:56;;;;;;;100.20;39.37;;;-4.60;99.90;;;;;;10478058;28;20052;-90
2022/01/11 08:11:58;;;;;;;106.60;39.60;;;-4.40;99.90;;;;;;10496467;28;20032;-89
2022/01/11 08:16:59;;;;;;;115.77;43.53;;;-4.40;99.90;;;;;;10477477;28;20039;-89
2022/01/11 08:22:00;;;;;;;104.10;41.37;;;-4.30;99.90;;;;;;10459070;28;20041;-91
2022/01/11 08:27:00;;;;;;;113.67;42.77;;;-4.30;99.90;;;;;;10436908;28;20124;-90
2022/01/11 08:32:01;;;;;;;127.10;48.07;;;-4.40;99.90;;;;;;10454414;28;20025;-92
2022/01/11 08:37:04;;;;;;;127.00;47.33;;;-4.50;99.90;;;;;;10436614;28;20032;-88
2022/01/11 08:42:05;;;;;;;121.37;48.10;;;-4.50;99.90;;;;;;10473655;28;20060;-89
2022/01/11 08:47:06;;;;;;;126.07;49.07;;;-4.40;99.90;;;;;;10476645;28;20031;-90
2022/01/11 08:52:07;;;;;;;111.13;44.83;;;-4.40;99.90;;;;;;10477003;28;20081;-91
2022/01/11 08:57:08;;;;;;;108.67;44.10;;;-4.50;99.90;;;;;;10476264;28;20476;-88
2022/01/11 09:02:09;;;;;;;100.93;40.87;;;-4.20;99.90;;;;;;10475332;28;20056;-91
2022/01/11 09:07:10;;;;;;;93.90;40.73;;;-3.90;99.90;;;;;;10494000;28;20123;-91
2022/01/11 09:12:13;;;;;;;102.10;41.23;;;-3.80;99.90;;;;;;10475960;28;20021;-89
2022/01/11 09:17:14;;;;;;;102.10;42.90;;;-3.70;99.90;;;;;;10476002;28;20482;-91
2022/01/11 09:22:14;;;;;;;95.57;40.00;;;-3.60;99.90;;;;;;10474817;28;20067;-88
2022/01/11 09:27:15;;;;;;;96.77;40.70;;;-3.40;99.90;;;;;;10475055;28;20476;-88
2022/01/11 09:32:16;;;;;;;96.10;38.60;;;-3.40;99.90;;;;;;10474218;28;20105;-87
2022/01/11 09:37:17;;;;;;;98.63;40.50;;;-3.50;99.90;;;;;;10474293;28;20052;-88
2022/01/11 09:42:18;;;;;;;93.87;38.70;;;-3.60;99.90;;;;;;10473792;28;20766;-88
2022/01/11 09:47:19;;;;;;;95.10;41.67;;;-3.50;99.90;;;;;;10491840;28;20022;-87
2022/01/11 09:52:24;;;;;;;103.70;41.57;;;-3.40;99.90;;;;;;10474095;28;20031;-88
2022/01/11 09:57:24;;;;;;;90.03;37.60;;;-3.30;99.90;;;;;;10432214;28;20356;-89
2022/01/11 10:02:25;;;;;;;97.97;39.17;;;-3.00;99.90;;;;;;10432354;28;20056;-89
2022/01/11 10:07:31;;;;;;;92.43;39.80;;;-2.90;99.90;;;;;;10463833;28;20025;-88
2022/01/11 10:12:40;;;;;;;;;;;-2.90;99.90;;;;;;10492217;28;20064;-89
2022/01/11 10:17:44;;;;;;;98.80;40.07;;;-2.70;99.90;;;;;;10473931;28;19962;-88
2022/01/11 10:22:51;;;;;;;96.73;40.03;;;-2.50;99.90;;;;;;10473464;28;20071;-88
2022/01/11 10:28:01;;;;;;;93.60;41.47;;;-2.30;99.90;;;;;;10489868;28;20476;-90
2022/01/11 10:33:06;;;;;;;83.97;36.53;;;-2.10;99.90;;;;;;10472994;28;20024;-88
2022/01/11 10:38:07;;;;;;;94.20;37.13;;;-2.00;99.90;;;;;;10490726;28;20051;-88
2022/01/11 10:43:11;;;;;;;86.10;38.17;;;-1.80;99.90;;;;;;10472439;28;20036;-88
2022/01/11 10:48:18;;;;;;;89.20;37.30;;;-1.60;99.90;;;;;;10484041;28;20040;-88
2022/01/11 10:53:32;;;;;;;79.10;34.67;;;-1.50;99.90;;;;;;10461409;28;20029;-89
2022/01/11 10:58:35;;;;;;;74.70;32.40;;;-1.50;99.90;;;;;;10489842;28;20152;-88
2022/01/11 11:03:37;;;;;;;74.23;31.13;;;-1.40;99.90;;;;;;10471946;28;20082;-89
2022/01/11 11:08:41;;;;;;;66.73;29.03;;;-1.30;99.90;;;;;;10471803;28;20507;-87
2022/01/11 11:13:44;;;;;;;70.40;32.03;;;-1.10;99.90;;;;;;10490236;28;20497;-88
2022/01/11 11:18:47;;;;;;;61.77;26.03;;;-1.10;99.90;;;;;;10490131;28;20028;-87
2022/01/11 11:23:51;;;;;;;56.30;22.23;;;-1.00;99.90;;;;;;10442834;28;20045;-87
2022/01/11 11:28:53;;;;;;;62.20;25.70;;;-1.00;99.90;;;;;;10437983;28;20037;-89
2022/01/11 11:33:53;;;;;;;244.67;105.83;;;-1.00;99.90;;;;;;10437406;28;20021;-86
2022/01/11 11:39:11;;;;;;;62.23;24.53;;;-0.90;99.90;;;;;;10454996;28;20033;-88
2022/01/11 11:44:15;;;;;;;56.00;24.87;;;-0.90;99.90;;;;;;10437322;28;20041;-87
2022/01/11 11:49:37;;;;;;;70.90;28.13;;;-0.90;99.90;;;;;;10454897;28;20112;-86
2022/01/11 11:55:07;;;;;;;57.70;26.03;;;-0.80;99.90;;;;;;10437095;28;20032;-88
2022/01/11 12:00:17;;;;;;;72.67;29.77;;;-0.90;99.90;;;;;;10435841;28;20060;-88
2022/01/11 12:05:47;;;;;;;65.73;26.87;;;-0.90;99.90;;;;;;10454105;28;20029;-87
2022/01/11 12:10:52;;;;;;;72.90;30.07;;;-0.90;99.90;;;;;;10433205;28;20036;-89
2022/01/11 12:15:53;;;;;;;100.47;40.30;;;-0.80;99.90;;;;;;10436503;28;20031;-89
2022/01/11 12:20:58;;;;;;;78.23;30.97;;;-0.80;99.90;;;;;;10435313;28;20017;-87
2022/01/11 12:26:13;;;;;;;66.63;27.77;;;-0.80;99.90;;;;;;10435344;28;20028;-87
2022/01/11 12:31:35;;;;;;;506.67;224.52;;;-0.80;99.90;;;;;;10452951;28;20021;-87
2022/01/11 12:37:01;;;;;;;74.97;30.90;;;-0.80;99.90;;;;;;10443536;28;20048;-89
2022/01/11 12:42:25;;;;;;;75.10;28.77;;;-0.80;99.90;;;;;;10434915;28;20036;-87
2022/01/11 12:47:44;;;;;;;67.00;30.00;;;-0.90;99.90;;;;;;10452798;28;20455;-88
2022/01/11 12:52:47;;;;;;;163.80;80.70;;;-0.80;99.90;;;;;;10452419;28;20029;-87
2022/01/11 12:57:48;;;;;;;76.67;31.93;;;-0.80;99.90;;;;;;10434444;28;20025;-86
2022/01/11 13:02:48;;;;;;;60.83;27.80;;;-0.80;99.90;;;;;;10493006;28;20395;-86
2022/01/11 13:07:51;;;;;;;75.73;31.77;;;-0.80;99.90;;;;;;10474524;28;20028;-87
2022/01/11 13:13:03;;;;;;;625.33;253.57;;;-0.80;99.90;;;;;;10475727;28;20123;-86
2022/01/11 13:18:10;;;;;;;88.00;39.07;;;-0.70;99.90;;;;;;10493115;28;20066;-87
2022/01/11 13:23:28;;;;;;;1771.70;775.23;;;-0.70;99.90;;;;;;10474972;28;20104;-89
2022/01/11 13:28:56;;;;;;;87.77;38.20;;;-0.60;99.90;;;;;;10433580;28;20036;-87
2022/01/11 13:34:06;;;;;;;89.37;46.37;;;-0.50;99.90;;;;;;10451144;28;20123;-87
2022/01/11 13:39:10;;;;;;;68.40;31.27;;;-0.50;99.90;;;;;;10433171;28;20017;-88
2022/01/11 13:44:12;;;;;;;87.03;48.27;;;-0.60;99.90;;;;;;10432275;28;20028;-88
2022/01/11 13:49:20;;;;;;;63.53;26.30;;;-0.50;99.90;;;;;;10483843;28;20466;-87
2022/01/11 13:54:27;;;;;;;66.73;30.10;;;-0.50;99.90;;;;;;10463211;28;20032;-88
2022/01/11 13:59:29;;;;;;;62.47;27.87;;;-0.60;99.90;;;;;;10464245;28;20136;-86
2022/01/11 14:04:42;;;;;;;60.37;27.27;;;-0.70;99.90;;;;;;10472442;28;20020;-88
2022/01/11 14:09:50;;;;;;;66.00;29.63;;;-0.70;99.90;;;;;;10435198;28;20029;-88
2022/01/11 14:15:11;;;;;;;61.93;27.77;;;-0.70;99.90;;;;;;10438143;28;20056;-88
2022/01/11 14:20:19;;;;;;;75.63;30.30;;;-0.70;99.90;;;;;;10469851;28;20053;-88
2022/01/11 14:25:24;;;;;;;82.93;34.60;;;-0.70;99.90;;;;;;10439519;28;20033;-89
2022/01/11 14:30:39;;;;;;;86.67;36.50;;;-0.80;99.90;;;;;;10458573;28;20095;-89
2022/01/11 14:35:41;;;;;;;88.30;35.47;;;-1.00;99.90;;;;;;10472832;28;20033;-87
2022/01/11 14:40:44;;;;;;;94.97;38.60;;;-1.20;99.90;;;;;;10448405;28;20037;-88
2022/01/11 14:45:45;;;;;;;88.73;41.60;;;-1.40;99.90;;;;;;10471438;28;20033;-87
2022/01/11 14:50:51;;;;;;;88.77;39.27;;;-1.50;99.90;;;;;;10489838;28;20043;-87
2022/01/11 14:55:55;;;;;;;88.77;36.27;;;-1.70;99.90;;;;;;10433456;28;20037;-87
2022/01/11 15:00:58;;;;;;;93.30;39.93;;;-1.80;99.90;;;;;;10465435;28;20311;-88
2022/01/11 15:06:05;;;;;;;95.30;43.00;;;-1.90;99.90;;;;;;10449847;28;20115;-88
2022/01/11 15:11:21;;;;;;;97.07;42.00;;;-2.00;99.90;;;;;;10471051;28;20064;-85
2022/01/11 15:16:27;;;;;;;103.97;41.37;;;-2.10;99.90;;;;;;10455713;28;20033;-90
2022/01/11 15:21:28;;;;;;;;;;;-2.20;99.90;;;;;;10439391;28;20041;-90
2022/01/11 15:26:32;;;;;;;104.80;44.97;;;-2.30;99.90;;;;;;10460535;28;19909;-88
2022/01/11 15:31:33;;;;;;;111.70;47.03;;;-2.40;99.90;;;;;;10467753;28;20028;-87
2022/01/11 15:36:35;;;;;;;115.53;48.20;;;-2.50;99.90;;;;;;10467245;28;20024;-88
2022/01/11 15:41:36;;;;;;;113.73;48.63;;;-2.60;99.90;;;;;;10494008;28;20136;-87
2022/01/11 15:46:39;;;;;;;118.20;51.33;;;-2.70;99.90;;;;;;10461879;28;20468;-88
2022/01/11 15:51:40;;;;;;;106.27;46.87;;;-2.80;99.90;;;;;;10446315;28;20037;-89
2022/01/11 15:56:42;;;;;;;130.80;54.17;;;-3.00;99.90;;;;;;10456409;28;20380;-88
2022/01/11 16:01:43;;;;;;;126.33;51.83;;;-3.10;99.90;;;;;;10459134;28;20049;-88
2022/01/11 16:06:43;;;;;;;129.77;54.50;;;-3.30;99.90;;;;;;10492324;28;20029;-88
2022/01/11 16:11:44;;;;;;;148.30;61.17;;;-3.40;99.90;;;;;;10452895;28;20140;-88
2022/01/11 16:16:45;;;;;;;152.37;62.23;;;-3.50;99.90;;;;;;10490634;28;20108;-87
2022/01/11 16:21:46;;;;;;;163.00;68.40;;;-3.60;99.90;;;;;;10489883;28;20033;-89
2022/01/11 16:26:47;;;;;;;175.77;70.23;;;-3.70;99.90;;;;;;10485718;28;20025;-88
2022/01/11 16:31:48;;;;;;;182.23;71.60;;;-3.90;99.90;;;;;;10478534;28;20021;-88
2022/01/11 16:36:49;;;;;;;173.20;67.23;;;-4.00;99.90;;;;;;10492714;28;20028;-88
2022/01/11 16:47:09;;;;;;;191.27;74.20;;;-4.10;99.90;;;;;;10483814;28;20032;-87
2022/01/11 16:52:11;;;;;;;185.10;72.97;;;-4.20;99.90;;;;;;10490331;28;20380;-88
2022/01/11 16:57:12;;;;;;;188.50;72.83;;;-4.20;99.90;;;;;;10485882;28;20025;-88
2022/01/11 17:02:13;;;;;;;182.97;69.30;;;-4.30;99.90;;;;;;10456900;28;20063;-89
2022/01/11 17:07:13;;;;;;;194.60;70.47;;;-4.30;99.90;;;;;;10480903;28;20040;-88
2022/01/11 17:12:14;;;;;;;198.30;73.30;;;-4.50;99.90;;;;;;10455601;28;20484;-88
2022/01/11 17:17:15;;;;;;;186.33;69.97;;;-4.50;99.90;;;;;;10461461;28;20043;-88
2022/01/11 17:22:15;;;;;;;187.77;68.90;;;-4.60;99.90;;;;;;10461745;28;20162;-88
2022/01/11 17:27:18;;;;;;;179.27;68.33;;;-4.70;99.90;;;;;;10475578;28;20020;-90
2022/01/11 17:32:19;;;;;;;189.07;60.60;;;-4.80;99.90;;;;;;10458320;28;20399;-88
2022/01/11 17:37:21;;;;;;;214.17;70.63;;;-5.00;99.90;;;;;;10456577;28;20040;-89
2022/01/11 17:42:22;;;;;;;251.93;72.73;;;-5.20;99.90;;;;;;10463807;28;20488;-90
2022/01/11 17:47:25;;;;;;;263.00;72.73;;;-5.40;99.90;;;;;;10468086;28;20028;-90
2022/01/11 17:52:26;;;;;;;240.00;70.67;;;-5.50;99.90;;;;;;10447532;28;20107;-89
2022/01/11 17:57:33;;;;;;;263.77;70.17;;;-5.50;99.90;;;;;;10472566;28;20567;-90
2022/01/11 18:02:34;;;;;;;245.20;75.33;;;-5.50;99.90;;;;;;10477325;28;20049;-89
2022/01/11 18:07:35;;;;;;;173.97;61.57;;;-5.50;99.90;;;;;;10488023;28;20687;-88
2022/01/11 18:12:37;;;;;;;262.37;82.63;;;-5.40;99.90;;;;;;10475909;28;20025;-89
2022/01/11 18:17:38;;;;;;;189.43;65.70;;;-5.20;99.90;;;;;;10460360;28;20025;-89
2022/01/11 18:22:40;;;;;;;197.63;60.97;;;-5.00;99.90;;;;;;10499046;28;20657;-89
2022/01/11 18:27:41;;;;;;;194.90;64.33;;;-5.00;99.90;;;;;;10497290;28;20484;-90
2022/01/11 18:32:42;;;;;;;213.17;72.10;;;-5.00;99.90;;;;;;10450545;28;20381;-90
2022/01/11 18:37:42;;;;;;;162.00;56.43;;;-4.80;99.90;;;;;;10468304;28;20029;-89
2022/01/11 18:42:43;;;;;;;99.97;37.00;;;-4.90;99.90;;;;;;10459473;28;20062;-90
2022/01/11 18:47:44;;;;;;;189.43;45.83;;;-5.00;99.90;;;;;;10485342;28;20033;-91
2022/01/11 18:52:44;;;;;;;116.13;39.30;;;-5.10;99.90;;;;;;10454182;28;20032;-90
2022/01/11 18:57:45;;;;;;;102.67;35.33;;;-5.20;99.90;;;;;;10449798;28;20085;-89
2022/01/11 19:02:50;;;;;;;131.80;43.67;;;-5.20;99.90;;;;;;10448443;28;20063;-90
2022/01/11 19:13:47;;;;;;;114.47;38.43;;;-5.10;99.90;;;;;;10466657;28;20037;-89
2022/01/11 19:18:48;;;;;;;116.57;35.43;;;-5.00;99.90;;;;;;10457119;28;20035;-89
2022/01/11 19:23:49;;;;;;;237.83;51.53;;;-4.80;99.90;;;;;;10475461;28;20032;-89
2022/01/11 19:28:52;;;;;;;106.73;39.20;;;-4.70;99.90;;;;;;10489419;28;20632;-89
2022/01/11 19:33:53;;;;;;;183.37;43.43;;;-4.60;99.90;;;;;;10455240;28;20377;-87
2022/01/11 19:38:54;;;;;;;130.03;38.53;;;-4.50;99.90;;;;;;10499775;28;20020;-89
2022/01/11 19:43:54;;;;;;;149.57;39.70;;;-4.50;99.90;;;;;;10486453;28;20036;-90
2022/01/11 19:48:55;;;;;;;105.93;37.67;;;-4.30;99.90;;;;;;10481031;28;20463;-89
2022/01/11 19:53:57;;;;;;;106.70;37.70;;;-4.30;99.90;;;;;;10496333;28;20056;-90
2022/01/11 19:58:58;;;;;;;100.53;33.67;;;-4.20;99.90;;;;;;10478671;28;20075;-88
2022/01/11 20:03:58;;;;;;;91.77;33.33;;;-4.20;99.90;;;;;;10500736;28;20067;-89
2022/01/11 20:08:59;;;;;;;107.63;36.13;;;-4.20;99.90;;;;;;10496231;28;20024;-89
2022/01/11 20:14:02;;;;;;;106.03;38.40;;;-4.20;99.90;;;;;;10487676;28;20531;-89
2022/01/11 20:19:03;;;;;;;114.37;39.17;;;-4.20;99.90;;;;;;10493483;28;20081;-90
2022/01/11 20:29:26;;;;;;;111.00;38.30;;;-4.10;99.90;;;;;;10463654;28;20029;-91
2022/01/11 20:34:31;;;;;;;103.77;39.37;;;-4.10;99.90;;;;;;10460426;28;20036;-92
2022/01/11 20:39:33;;;;;;;95.32;32.35;;;-4.10;99.90;;;;;;10445144;28;20021;-91
2022/01/11 20:44:37;;;;;;;90.23;31.70;;;-4.10;99.90;;;;;;10453771;28;20646;-88
2022/01/11 20:49:39;;;;;;;94.30;33.60;;;-4.20;99.90;;;;;;10450457;28;20132;-90
2022/01/11 20:54:41;;;;;;;109.67;42.13;;;-4.20;99.90;;;;;;10447605;28;20464;-89
2022/01/11 20:59:42;;;;;;;94.37;35.23;;;-4.10;99.90;;;;;;10468875;28;20137;-89
2022/01/11 21:04:43;;;;;;;83.47;30.03;;;-4.20;99.90;;;;;;10463292;28;20476;-87
2022/01/11 21:09:44;;;;;;;77.13;27.33;;;-4.10;99.90;;;;;;10473748;28;20025;-88
2022/01/11 21:14:49;;;;;;;98.40;37.63;;;-4.20;99.90;;;;;;10478743;28;20086;-89
2022/01/11 21:20:05;;;;;;;80.53;29.53;;;-4.20;99.90;;;;;;10470178;28;20520;-90
2022/01/11 21:25:07;;;;;;;;;;;-4.30;99.90;;;;;;10437691;28;20287;-88
2022/01/11 21:30:10;;;;;;;95.67;40.30;;;-4.20;99.90;;;;;;10465118;28;19913;-88
2022/01/11 21:35:11;;;;;;;76.37;26.00;;;-4.30;99.90;;;;;;10498206;28;20047;-90
2022/01/11 21:40:12;;;;;;;72.87;30.27;;;-4.30;99.90;;;;;;10507352;28;20037;-88
2022/01/11 21:45:13;;;;;;;71.53;26.77;;;-4.40;99.90;;;;;;10470646;28;20491;-88
2022/01/11 21:50:13;;;;;;;75.57;26.83;;;-4.40;99.90;;;;;;10471044;28;20766;-88
2022/01/11 21:55:16;;;;;;;67.67;25.13;;;-4.40;99.90;;;;;;10515992;28;20047;-88
2022/01/11 22:00:17;;;;;;;76.77;28.47;;;-4.40;99.90;;;;;;10463313;28;20061;-89
2022/01/11 22:05:19;;;;;;;77.33;27.53;;;-4.50;99.90;;;;;;10474898;28;20618;-89
2022/01/11 22:10:22;;;;;;;73.83;26.87;;;-4.40;99.90;;;;;;10487535;28;20025;-87
2022/01/11 22:16:38;;;;;;;70.23;28.30;;;-4.40;99.90;;;;;;10435122;28;20029;-89
2022/01/11 22:20:54;;;;;;;66.67;24.60;;;-4.40;99.90;;;;;;10457564;28;20045;-90
2022/01/11 22:25:55;;;;;;;60.73;24.10;;;-4.40;99.90;;;;;;10454638;28;20733;-89
2022/01/11 22:30:57;;;;;;;62.10;22.40;;;-4.30;99.90;;;;;;10457592;28;20036;-90
2022/01/11 22:35:59;;;;;;;65.93;23.73;;;-4.30;99.90;;;;;;10475573;28;20025;-89
2022/01/11 22:41:00;;;;;;;74.80;27.53;;;-4.20;99.90;;;;;;10495436;28;20045;-87
2022/01/11 22:46:00;;;;;;;78.73;28.83;;;-4.20;99.90;;;;;;10466782;28;20380;-89
2022/01/11 22:51:01;;;;;;;82.30;26.80;;;-4.20;99.90;;;;;;10471832;28;20032;-88
2022/01/11 22:56:02;;;;;;;83.03;30.43;;;-4.20;99.90;;;;;;10431315;28;20024;-90
2022/01/11 23:01:05;;;;;;;68.50;28.10;;;-4.00;99.90;;;;;;10438787;28;20048;-88
2022/01/11 23:06:07;;;;;;;79.20;28.93;;;-4.00;99.90;;;;;;10487358;28;20479;-89
2022/01/11 23:11:10;;;;;;;69.57;24.73;;;-4.00;99.90;;;;;;10472126;28;20119;-88
2022/01/11 23:16:12;;;;;;;75.67;28.07;;;-3.90;99.90;;;;;;10460455;28;20476;-89
2022/01/11 23:21:12;;;;;;;77.90;27.37;;;-3.90;99.90;;;;;;10468669;28;20033;-88
2022/01/11 23:26:14;;;;;;;72.77;27.80;;;-3.90;99.90;;;;;;10445561;28;20520;-88
2022/01/11 23:31:14;;;;;;;77.83;27.80;;;-3.90;99.90;;;;;;10461713;28;20028;-87
2022/01/11 23:36:16;;;;;;;87.40;31.40;;;-3.90;99.90;;;;;;10478248;28;20032;-90
2022/01/11 23:41:25;;;;;;;108.37;39.67;;;-3.90;99.90;;;;;;10478427;28;20082;-88
2022/01/11 23:46:26;;;;;;;95.20;34.37;;;-3.80;99.90;;;;;;10455249;28;20032;-89
2022/01/11 23:51:27;;;;;;;93.63;34.47;;;-3.70;99.90;;;;;;10491072;28;20029;-89
2022/01/11 23:56:28;;;;;;;74.60;27.23;;;-3.60;99.90;;;;;;10442692;28;20053;-88
